Time,TemperatureF,DewpointF,PressureIn,WindDirection,WindDirectionDegrees,WindSpeedMPH,WindSpeedGustMPH,Humidity,HourlyPrecipIn,Conditions,Clouds,dailyrainin,SoftwareType,DateUTC
2015-09-05 00:00:00,67.9,67.0,30.03,SW,233,0.0,2.0,97,0.00,,---,1.56,VWS V15.00,2015-09-05 04:00:00,
2015-09-05 00:05:00,67.9,67.0,30.04,SW,233,0.0,0.0,97,0.00,,---,0.00,VWS V15.00,2015-09-05 04:05:00,
2015-09-05 00:10:00,67.8,66.9,30.04,SW,232,0.0,0.0,97,0.00,,---,0.00,VWS V15.00,2015-09-05 04:10:00,
2015-09-05 00:15:00,67.6,66.7,30.04,SE,144,0.0,1.0,97,0.00,,---,0.00,VWS V15.00,2015-09-05 04:15:00,
2015-09-05 00:20:00,67.5,66.9,30.04,SE,143,0.0,1.0,98,0.00,,---,0.00,VWS V15.00,2015-09-05 04:20:00,
2015-09-05 00:25:00,67.4,66.8,30.04,SE,143,0.0,0.0,98,0.00,,---,0.00,VWS V15.00,2015-09-05 04:25:00,
2015-09-05 00:30:00,67.4,66.8,30.04,North,357,0.0,3.0,98,0.00,,---,0.00,VWS V15.00,2015-09-05 04:30:00,
2015-09-05 00:35:00,67.3,66.7,30.04,North,357,0.0,0.0,98,0.00,,---,0.00,VWS V15.00,2015-09-05 04:35:00,
2015-09-05 00:40:00,67.2,66.6,30.03,North,357,0.0,0.0,98,0.00,,---,0.00,VWS V15.00,2015-09-05 04:40:00,
2015-09-05 00:45:00,66.9,66.3,30.03,NNW,338,0.0,0.0,98,0.00,,---,0.00,VWS V15.00,2015-09-05 04:45:00,
2015-09-05 00:50:00,67.0,66.7,30.03,North,356,0.0,1.0,99,0.00,,---,0.00,VWS V15.00,2015-09-05 04:50:00,
2015-09-05 00:55:00,66.9,66.6,30.03,North,355,0.0,0.0,99,0.00,,---,0.00,VWS V15.00,2015-09-05 04:55:00,
2015-09-05 01:00:00,66.9,66.6,30.03,North,356,0.0,1.0,99,0.00,,---,0.00,VWS V15.00,2015-09-05 05:00:00,
2015-09-05 01:05:00,66.8,66.5,30.02,North,355,0.0,0.0,99,0.00,,---,0.00,VWS V15.00,2015-09-05 05:05:00,
2015-09-05 01:10:00,66.7,66.4,30.02,North,356,0.0,0.0,99,0.00,,---,0.00,VWS V15.00,2015-09-05 05:10:00,
2015-09-05 01:15:00,66.6,66.3,30.02,North,356,0.0,0.0,99,0.00,,---,0.00,VWS V15.00,2015-09-05 05:15:00,
2015-09-05 01:20:00,66.6,66.3,30.02,North,356,1.0,1.0,99,0.00,,---,0.00,VWS V15.00,2015-09-05 05:20:00,
2015-09-05 01:25:00,66.7,66.4,30.02,North,4,0.0,2.0,99,0.00,,---,0.00,VWS V15.00,2015-09-05 05:25:00,
2015-09-05 01:30:00,66.7,66.4,30.02,NW,326,1.0,2.0,99,0.00,,---,0.00,VWS V15.00,2015-09-05 05:30:00,
2015-09-05 01:35:00,66.7,66.4,30.02,WNW,292,0.0,1.0,99,0.00,,---,0.00,VWS V15.00,2015-09-05 05:35:00,
2015-09-05 01:40:00,66.6,66.3,30.02,WNW,292,0.0,1.0,99,0.00,,---,0.00,VWS V15.00,2015-09-05 05:40:00,
2015-09-05 01:45:00,66.6,66.3,30.02,SW,229,0.0,0.0,99,0.00,,---,0.00,VWS V15.00,2015-09-05 05:45:00,
2015-09-05 01:50:00,66.5,66.2,30.02,SW,229,0.0,0.0,99,0.00,,---,0.00,VWS V15.00,2015-09-05 05:50:00,
2015-09-05 01:55:00,66.4,66.1,30.02,SW,231,0.0,0.0,99,0.00,,---,0.00,VWS V15.00,2015-09-05 05:55:00,
2015-09-05 02:00:00,66.3,66.0,30.02,SW,231,0.0,0.0,99,0.00,,---,0.00,VWS V15.00,2015-09-05 06:00:00,
2015-09-05 02:05:00,66.2,65.9,30.02,SW,231,0.0,0.0,99,0.00,,---,0.00,VWS V15.00,2015-09-05 06:05:00,
2015-09-05 02:10:00,66.3,66.0,30.02,SW,231,0.0,0.0,99,0.00,,---,0.00,VWS V15.00,2015-09-05 06:10:00,
2015-09-05 02:15:00,66.2,65.9,30.02,SW,231,0.0,0.0,99,0.00,,---,0.00,VWS V15.00,2015-09-05 06:15:00,
2015-09-05 02:20:00,66.1,65.8,30.02,SW,231,0.0,0.0,99,0.00,,---,0.00,VWS V15.00,2015-09-05 06:20:00,
2015-09-05 02:25:00,66.0,65.7,30.02,SW,231,0.0,0.0,99,0.00,,---,0.00,VWS V15.00,2015-09-05 06:25:00,
2015-09-05 02:30:00,66.0,66.0,30.02,SW,231,0.0,0.0,100,0.00,,---,0.00,VWS V15.00,2015-09-05 06:30:00,
2015-09-05 02:35:00,65.9,65.9,30.02,SW,231,0.0,0.0,100,0.00,,---,0.00,VWS V15.00,2015-09-05 06:35:00,
2015-09-05 02:40:00,65.8,65.8,30.02,SW,231,0.0,0.0,100,0.00,,---,0.00,VWS V15.00,2015-09-05 06:40:00,
2015-09-05 02:45:00,65.7,65.7,30.01,SW,231,0.0,0.0,100,0.00,,---,0.00,VWS V15.00,2015-09-05 06:45:00,
2015-09-05 02:50:00,65.7,65.7,30.01,SW,231,0.0,0.0,100,0.00,,---,0.00,VWS V15.00,2015-09-05 06:50:00,
2015-09-05 02:55:00,65.6,65.6,30.01,SW,231,0.0,0.0,100,0.00,,---,0.00,VWS V15.00,2015-09-05 06:55:00,
2015-09-05 03:00:00,65.7,65.7,30.01,SW,231,0.0,0.0,100,0.00,,---,0.00,VWS V15.00,2015-09-05 07:00:00,
2015-09-05 03:05:00,65.7,65.7,30.01,SW,231,0.0,0.0,100,0.00,,---,0.00,VWS V15.00,2015-09-05 07:05:00,
2015-09-05 03:10:00,65.8,65.8,30.01,SW,231,0.0,0.0,100,0.00,,---,0.00,VWS V15.00,2015-09-05 07:10:00,
2015-09-05 03:15:00,65.8,65.8,30.01,SW,231,0.0,0.0,100,0.00,,---,0.00,VWS V15.00,2015-09-05 07:15:00,
2015-09-05 03:20:00,65.7,65.7,30.01,SW,231,0.0,0.0,100,0.00,,---,0.00,VWS V15.00,2015-09-05 07:20:00,
2015-09-05 03:25:00,65.6,65.6,30.02,SW,231,0.0,0.0,100,0.00,,---,0.00,VWS V15.00,2015-09-05 07:25:00,
2015-09-05 03:30:00,65.6,65.6,30.02,SE,142,0.0,0.0,100,0.00,,---,0.00,VWS V15.00,2015-09-05 07:30:00,
2015-09-05 03:35:00,65.6,65.6,30.02,ESE,122,0.0,0.0,100,0.00,,---,0.00,VWS V15.00,2015-09-05 07:35:00,
2015-09-05 03:40:00,65.7,65.7,30.02,ESE,122,0.0,0.0,100,0.00,,---,0.00,VWS V15.00,2015-09-05 07:40:00,
2015-09-05 03:45:00,65.6,65.6,30.03,ESE,123,0.0,0.0,100,0.00,,---,0.00,VWS V15.00,2015-09-05 07:45:00,
2015-09-05 03:50:00,65.7,65.7,30.03,ESE,123,0.0,0.0,100,0.00,,---,0.00,VWS V15.00,2015-09-05 07:50:00,
2015-09-05 03:55:00,65.7,65.7,30.03,ESE,122,0.0,0.0,100,0.00,,---,0.00,VWS V15.00,2015-09-05 07:55:00,
2015-09-05 04:00:00,65.6,65.6,30.03,ESE,122,0.0,0.0,100,0.00,,---,0.00,VWS V15.00,2015-09-05 08:00:00,
2015-09-05 04:05:00,65.6,65.6,30.03,ESE,123,0.0,0.0,100,0.00,,---,0.00,VWS V15.00,2015-09-05 08:05:00,
2015-09-05 04:10:00,65.6,65.6,30.03,ESE,122,0.0,0.0,100,0.00,,---,0.00,VWS V15.00,2015-09-05 08:10:00,
2015-09-05 04:15:00,65.7,65.7,30.03,ESE,107,0.0,0.0,100,0.00,,---,0.00,VWS V15.00,2015-09-05 08:15:00,
2015-09-05 04:20:00,65.8,65.8,30.04,ESE,108,0.0,0.0,100,0.00,,---,0.00,VWS V15.00,2015-09-05 08:20:00,
2015-09-05 04:25:00,65.7,65.7,30.04,ESE,108,0.0,0.0,100,0.00,,---,0.00,VWS V15.00,2015-09-05 08:25:00,
2015-09-05 04:30:00,65.7,65.7,30.04,ESE,107,0.0,0.0,100,0.00,,---,0.00,VWS V15.00,2015-09-05 08:30:00,
2015-09-05 04:35:00,65.8,65.8,30.04,ESE,107,0.0,0.0,100,0.00,,---,0.00,VWS V15.00,2015-09-05 08:35:00,
2015-09-05 04:40:00,65.9,65.9,30.04,NE,34,0.0,0.0,100,0.00,,---,0.00,VWS V15.00,2015-09-05 08:40:00,
2015-09-05 04:45:00,66.0,66.0,30.05,NNE,29,0.0,2.0,100,0.00,,---,0.00,VWS V15.00,2015-09-05 08:45:00,
2015-09-05 04:50:00,66.1,66.1,30.05,NE,36,0.0,2.0,100,0.00,,---,0.00,VWS V15.00,2015-09-05 08:50:00,
2015-09-05 04:55:00,66.3,66.3,30.05,East,85,0.0,0.0,100,0.00,,---,0.00,VWS V15.00,2015-09-05 08:55:00,
2015-09-05 05:00:00,66.4,66.4,30.05,East,89,0.0,0.0,100,0.00,,---,0.00,VWS V15.00,2015-09-05 09:00:00,
2015-09-05 05:05:00,66.5,66.5,30.05,East,101,0.0,1.0,100,0.00,,---,0.00,VWS V15.00,2015-09-05 09:05:00,
2015-09-05 05:10:00,66.6,66.6,30.05,ESE,115,0.0,1.0,100,0.00,,---,0.00,VWS V15.00,2015-09-05 09:10:00,
2015-09-05 05:15:00,66.6,66.6,30.05,East,97,1.0,1.0,100,0.00,,---,0.00,VWS V15.00,2015-09-05 09:15:00,
2015-09-05 05:20:00,66.6,66.6,30.05,SE,136,0.0,2.0,100,0.00,,---,0.00,VWS V15.00,2015-09-05 09:20:00,
2015-09-05 05:25:00,66.6,66.6,30.05,East,101,1.0,3.0,100,0.00,,---,0.00,VWS V15.00,2015-09-05 09:25:00,
2015-09-05 05:30:00,66.6,66.6,30.05,ESE,105,0.0,3.0,100,0.00,,---,0.00,VWS V15.00,2015-09-05 09:30:00,
2015-09-05 05:35:00,66.6,66.6,30.05,East,99,0.0,0.0,100,0.00,,---,0.00,VWS V15.00,2015-09-05 09:35:00,
2015-09-05 05:40:00,66.5,66.5,30.06,East,98,0.0,0.0,100,0.00,,---,0.00,VWS V15.00,2015-09-05 09:40:00,
2015-09-05 05:45:00,66.5,66.5,30.06,East,98,0.0,0.0,100,0.00,,---,0.00,VWS V15.00,2015-09-05 09:45:00,
2015-09-05 05:50:00,66.4,66.4,30.06,East,99,0.0,0.0,100,0.00,,---,0.00,VWS V15.00,2015-09-05 09:50:00,
2015-09-05 05:55:00,66.4,66.4,30.06,East,99,0.0,0.0,100,0.00,,---,0.00,VWS V15.00,2015-09-05 09:55:00,
2015-09-05 06:00:00,66.4,66.4,30.06,East,99,0.0,0.0,100,0.00,,---,0.00,VWS V15.00,2015-09-05 10:00:00,
2015-09-05 06:05:00,66.3,66.3,30.06,East,99,0.0,0.0,100,0.00,,---,0.00,VWS V15.00,2015-09-05 10:05:00,
2015-09-05 06:10:00,66.2,66.2,30.06,East,99,0.0,0.0,100,0.00,,---,0.00,VWS V15.00,2015-09-05 10:10:00,
2015-09-05 06:15:00,66.2,66.2,30.06,East,99,0.0,0.0,100,0.00,,---,0.00,VWS V15.00,2015-09-05 10:15:00,
2015-09-05 06:20:00,66.1,66.1,30.07,East,99,0.0,0.0,100,0.00,,---,0.00,VWS V15.00,2015-09-05 10:20:00,
2015-09-05 06:25:00,66.0,66.0,30.07,East,99,0.0,0.0,100,0.00,,---,0.00,VWS V15.00,2015-09-05 10:25:00,
2015-09-05 06:30:00,66.0,66.0,30.07,East,99,0.0,0.0,100,0.00,,---,0.00,VWS V15.00,2015-09-05 10:30:00,
2015-09-05 06:35:00,65.9,65.9,30.08,East,98,0.0,0.0,100,0.00,,---,0.00,VWS V15.00,2015-09-05 10:35:00,
2015-09-05 06:40:00,65.9,65.9,30.07,East,98,0.0,0.0,100,0.00,,---,0.00,VWS V15.00,2015-09-05 10:40:00,
2015-09-05 06:45:00,66.0,66.0,30.07,East,99,0.0,0.0,100,0.00,,---,0.00,VWS V15.00,2015-09-05 10:45:00,
2015-09-05 06:50:00,65.9,65.9,30.08,East,99,0.0,0.0,100,0.00,,---,0.00,VWS V15.00,2015-09-05 10:50:00,
2015-09-05 06:55:00,66.0,66.0,30.08,East,99,0.0,0.0,100,0.00,,---,0.00,VWS V15.00,2015-09-05 10:55:00,
2015-09-05 07:00:00,65.9,65.9,30.08,East,98,0.0,0.0,100,0.00,,---,0.00,VWS V15.00,2015-09-05 11:00:00,
2015-09-05 07:05:00,65.8,65.8,30.08,East,99,0.0,0.0,100,0.00,,---,0.00,VWS V15.00,2015-09-05 11:05:00,
2015-09-05 07:10:00,65.8,65.8,30.08,East,99,0.0,0.0,100,0.00,,---,0.00,VWS V15.00,2015-09-05 11:10:00,
2015-09-05 07:15:00,65.9,65.9,30.08,East,98,0.0,0.0,100,0.00,,---,0.00,VWS V15.00,2015-09-05 11:15:00,
2015-09-05 07:20:00,65.8,65.8,30.08,East,99,0.0,0.0,100,0.00,,---,0.00,VWS V15.00,2015-09-05 11:20:00,
2015-09-05 07:25:00,65.8,65.8,30.08,East,99,0.0,0.0,100,0.00,,---,0.00,VWS V15.00,2015-09-05 11:25:00,
2015-09-05 07:30:00,65.8,65.8,30.08,East,99,0.0,0.0,100,0.00,,---,0.00,VWS V15.00,2015-09-05 11:30:00,
2015-09-05 07:35:00,65.8,65.8,30.08,East,98,0.0,0.0,100,0.00,,---,0.00,VWS V15.00,2015-09-05 11:35:00,
2015-09-05 07:40:00,65.9,65.9,30.08,East,99,0.0,0.0,100,0.00,,---,0.00,VWS V15.00,2015-09-05 11:40:00,
2015-09-05 07:45:00,66.0,66.0,30.08,East,99,0.0,0.0,100,0.00,,---,0.00,VWS V15.00,2015-09-05 11:45:00,
2015-09-05 07:50:00,66.2,66.2,30.08,East,99,0.0,0.0,100,0.00,,---,0.00,VWS V15.00,2015-09-05 11:50:00,
2015-09-05 07:55:00,66.2,66.2,30.08,East,99,0.0,0.0,100,0.00,,---,0.00,VWS V15.00,2015-09-05 11:55:00,
2015-09-05 08:00:00,66.3,66.3,30.08,East,99,0.0,0.0,100,0.00,,---,0.00,VWS V15.00,2015-09-05 12:00:00,
2015-09-05 08:05:00,66.4,66.4,30.09,East,99,0.0,0.0,100,0.00,,---,0.00,VWS V15.00,2015-09-05 12:05:00,
2015-09-05 08:10:00,66.4,66.4,30.09,East,99,0.0,0.0,100,0.00,,---,0.00,VWS V15.00,2015-09-05 12:10:00,
2015-09-05 08:15:00,66.6,66.6,30.09,East,99,0.0,0.0,100,0.00,,---,0.00,VWS V15.00,2015-09-05 12:15:00,
2015-09-05 08:20:00,66.7,66.7,30.09,East,98,0.0,0.0,100,0.00,,---,0.00,VWS V15.00,2015-09-05 12:20:00,
2015-09-05 08:25:00,66.8,66.8,30.09,East,99,0.0,0.0,100,0.00,,---,0.00,VWS V15.00,2015-09-05 12:25:00,
2015-09-05 08:30:00,67.1,67.1,30.10,East,99,0.0,0.0,100,0.00,,---,0.00,VWS V15.00,2015-09-05 12:30:00,
2015-09-05 08:35:00,67.6,67.6,30.10,East,99,0.0,0.0,100,0.00,,---,0.00,VWS V15.00,2015-09-05 12:35:00,
2015-09-05 08:40:00,68.3,68.3,30.10,East,98,0.0,0.0,100,0.00,,---,0.00,VWS V15.00,2015-09-05 12:40:00,
2015-09-05 08:45:00,68.8,68.8,30.10,East,99,0.0,0.0,100,0.00,,---,0.00,VWS V15.00,2015-09-05 12:45:00,
2015-09-05 08:50:00,69.2,69.2,30.10,East,85,0.0,0.0,100,0.00,,---,0.00,VWS V15.00,2015-09-05 12:50:00,
2015-09-05 08:55:00,69.9,69.9,30.10,ESE,108,0.0,0.0,100,0.00,,---,0.00,VWS V15.00,2015-09-05 12:55:00,
2015-09-05 09:00:00,69.7,69.7,30.10,ENE,70,0.0,1.0,100,0.00,,---,0.00,VWS V15.00,2015-09-05 13:00:00,
2015-09-05 09:05:00,69.6,69.6,30.09,South,170,0.0,0.0,100,0.00,,---,0.00,VWS V15.00,2015-09-05 13:05:00,
2015-09-05 09:10:00,70.2,70.2,30.10,South,170,0.0,0.0,100,0.00,,---,0.00,VWS V15.00,2015-09-05 13:10:00,
2015-09-05 09:15:00,70.3,70.3,30.10,East,79,0.0,0.0,100,0.00,,---,0.00,VWS V15.00,2015-09-05 13:15:00,
2015-09-05 09:20:00,70.7,70.7,30.10,East,81,0.0,0.0,100,0.00,,---,0.00,VWS V15.00,2015-09-05 13:20:00,
2015-09-05 09:25:00,71.1,70.8,30.10,ESE,105,0.0,0.0,99,0.00,,---,0.00,VWS V15.00,2015-09-05 13:25:00,
2015-09-05 09:30:00,72.0,71.4,30.10,SE,136,0.0,0.0,98,0.00,,---,0.00,VWS V15.00,2015-09-05 13:30:00,
2015-09-05 09:34:00,72.6,71.1,30.10,South,176,0.0,0.0,95,0.00,,---,0.00,VWS V15.00,2015-09-05 13:34:00,
2015-09-05 09:39:00,73.4,70.3,30.10,SSW,194,0.0,0.0,90,0.00,,---,0.00,VWS V15.00,2015-09-05 13:39:00,
2015-09-05 09:44:00,74.1,70.0,30.10,SE,135,0.0,0.0,87,0.00,,---,0.00,VWS V15.00,2015-09-05 13:44:00,
2015-09-05 09:49:00,75.1,70.6,30.10,SE,139,3.0,3.0,86,0.00,,---,0.00,VWS V15.00,2015-09-05 13:49:00,
2015-09-05 09:54:00,75.8,69.6,30.10,SSW,207,1.0,4.0,81,0.00,,---,0.00,VWS V15.00,2015-09-05 13:54:00,
2015-09-05 09:59:00,76.5,69.9,30.10,SW,232,0.0,4.0,80,0.00,,---,0.00,VWS V15.00,2015-09-05 13:59:00,
2015-09-05 10:04:00,77.2,69.8,30.10,East,92,0.0,4.0,78,0.00,,---,0.00,VWS V15.00,2015-09-05 14:04:00,
2015-09-05 10:09:00,77.5,69.0,30.10,ENE,60,3.0,4.0,75,0.00,,---,0.00,VWS V15.00,2015-09-05 14:09:00,
2015-09-05 10:14:00,78.0,69.1,30.10,South,170,0.0,4.0,74,0.00,,---,0.00,VWS V15.00,2015-09-05 14:14:00,
2015-09-05 10:19:00,78.9,69.1,30.11,SSE,148,0.0,4.0,72,0.00,,---,0.00,VWS V15.00,2015-09-05 14:19:00,
2015-09-05 10:24:00,79.6,69.0,30.11,East,84,0.0,3.0,70,0.00,,---,0.00,VWS V15.00,2015-09-05 14:24:00,
2015-09-05 10:29:00,80.1,69.9,30.11,SSE,158,3.0,4.0,71,0.00,,---,0.00,VWS V15.00,2015-09-05 14:29:00,
2015-09-05 10:34:00,80.7,69.6,30.11,SSE,167,2.0,5.0,69,0.00,,---,0.00,VWS V15.00,2015-09-05 14:34:00,
2015-09-05 10:39:00,81.4,69.8,30.11,SSW,200,3.0,5.0,68,0.00,,---,0.00,VWS V15.00,2015-09-05 14:39:00,
2015-09-05 10:44:00,81.6,69.6,30.11,SSE,161,1.0,3.0,67,0.00,,---,0.00,VWS V15.00,2015-09-05 14:44:00,
2015-09-05 10:49:00,81.6,69.2,30.11,ENE,74,1.0,3.0,66,0.00,,---,0.00,VWS V15.00,2015-09-05 14:49:00,
2015-09-05 10:54:00,81.4,69.0,30.11,ESE,110,2.0,3.0,66,0.00,,---,0.00,VWS V15.00,2015-09-05 14:54:00,
2015-09-05 10:59:00,81.4,69.8,30.11,SE,146,0.0,3.0,68,0.00,,---,0.00,VWS V15.00,2015-09-05 14:59:00,
2015-09-05 11:04:00,81.5,69.5,30.11,ESE,115,1.0,2.0,67,0.00,,---,0.00,VWS V15.00,2015-09-05 15:04:00,
2015-09-05 11:09:00,81.4,69.0,30.11,SSW,198,2.0,4.0,66,0.00,,---,0.00,VWS V15.00,2015-09-05 15:09:00,
2015-09-05 11:14:00,81.2,69.2,30.11,ESE,106,0.0,3.0,67,0.00,,---,0.00,VWS V15.00,2015-09-05 15:14:00,
2015-09-05 11:19:00,81.3,69.3,30.12,SSE,165,3.0,3.0,67,0.00,,---,0.00,VWS V15.00,2015-09-05 15:19:00,
2015-09-05 11:24:00,81.4,69.0,30.12,South,180,2.0,2.0,66,0.00,,---,0.00,VWS V15.00,2015-09-05 15:24:00,
2015-09-05 11:29:00,81.6,69.6,30.11,ESE,120,2.0,3.0,67,0.00,,---,0.00,VWS V15.00,2015-09-05 15:29:00,
2015-09-05 11:34:00,81.7,70.6,30.11,South,191,0.0,0.0,69,0.00,,---,0.00,VWS V15.00,2015-09-05 15:34:00,
2015-09-05 11:39:00,81.8,69.3,30.11,East,84,0.0,2.0,66,0.00,,---,0.00,VWS V15.00,2015-09-05 15:39:00,
2015-09-05 11:44:00,81.7,69.7,30.11,SSW,203,0.0,2.0,67,0.00,,---,0.00,VWS V15.00,2015-09-05 15:44:00,
2015-09-05 11:47:00,81.8,69.3,30.11,SSE,151,0.0,2.0,66,0.00,,---,0.00,VWS V15.00,2015-09-05 15:47:00,
2015-09-05 11:50:00,81.9,69.4,30.11,SSE,161,0.0,2.0,66,0.00,,---,0.00,VWS V15.00,2015-09-05 15:50:00,